createdAt,value
2022-10-05T00:00:57.916Z,9.30
2022-10-05T00:03:28.106Z,9.30
2022-10-05T00:05:55.114Z,9.30
2022-10-05T00:08:24.886Z,9.20
2022-10-05T00:10:52.779Z,9.20
2022-10-05T00:13:29.874Z,9.20
2022-10-05T00:16:09.643Z,9.10
2022-10-05T00:18:37.025Z,9.10
2022-10-05T00:21:29.695Z,9.10
2022-10-05T00:23:58.241Z,9.10
2022-10-05T00:26:30.686Z,9.00
2022-10-05T00:28:58.104Z,9.00
2022-10-05T00:31:31.443Z,8.90
2022-10-05T00:33:58.979Z,8.90
2022-10-05T00:36:29.021Z,8.80
2022-10-05T00:38:56.217Z,8.90
2022-10-05T00:42:19.307Z,8.80
2022-10-05T00:45:16.374Z,8.80
2022-10-05T00:48:03.031Z,8.70
2022-10-05T00:50:53.586Z,8.70
2022-10-05T00:53:39.256Z,8.70
2022-10-05T00:56:33.804Z,8.70
2022-10-05T00:59:18.907Z,8.60
2022-10-05T01:02:03.425Z,8.50
2022-10-05T01:05:10.897Z,8.50
2022-10-05T01:08:11.288Z,8.50
2022-10-05T01:11:06.404Z,8.50
2022-10-05T01:14:00.228Z,8.50
2022-10-05T01:16:53.032Z,8.40
2022-10-05T01:19:46.228Z,8.40
2022-10-05T01:22:40.368Z,8.30
2022-10-05T01:25:26.465Z,8.30
2022-10-05T01:28:15.329Z,8.20
2022-10-05T01:31:43.065Z,8.20
2022-10-05T01:34:38.831Z,8.10
2022-10-05T01:37:57.510Z,8.10
2022-10-05T01:40:44.131Z,8.00
2022-10-05T01:43:48.845Z,8.00
2022-10-05T01:46:36.493Z,8.00
2022-10-05T01:49:31.711Z,8.00
2022-10-05T01:52:13.712Z,8.00
2022-10-05T01:55:17.928Z,8.00
2022-10-05T01:57:55.826Z,8.10
2022-10-05T02:00:23.987Z,8.10
2022-10-05T02:03:01.649Z,8.10
2022-10-05T02:05:56.483Z,8.10
2022-10-05T02:08:44.865Z,8.10
2022-10-05T02:11:15.198Z,8.10
2022-10-05T02:13:48.770Z,8.10
2022-10-05T02:16:39.781Z,8.20
2022-10-05T02:19:34.876Z,8.20
2022-10-05T02:22:08.954Z,8.20
2022-10-05T02:24:51.137Z,8.20
2022-10-05T02:27:26.193Z,8.20
2022-10-05T02:30:01.623Z,8.10
2022-10-05T02:32:43.278Z,7.90
2022-10-05T02:35:17.390Z,7.90
2022-10-05T02:38:01.398Z,7.90
2022-10-05T02:41:05.330Z,7.80
2022-10-05T02:44:03.886Z,7.80
2022-10-05T02:46:59.811Z,7.80
2022-10-05T02:50:24.371Z,7.70
2022-10-05T02:53:43.417Z,7.60
2022-10-05T02:56:56.492Z,7.50
2022-10-05T02:59:58.267Z,7.40
2022-10-05T03:02:52.738Z,7.30
2022-10-05T03:05:28.614Z,7.30
2022-10-05T03:08:00.715Z,7.30
2022-10-05T03:10:52.577Z,7.40
2022-10-05T03:13:44.165Z,7.30
2022-10-05T03:16:17.153Z,7.30
2022-10-05T03:19:03.339Z,7.30
2022-10-05T03:21:53.291Z,7.30
2022-10-05T03:24:31.025Z,7.40
2022-10-05T03:27:06.979Z,7.40
2022-10-05T03:29:52.354Z,7.40
2022-10-05T03:33:00.059Z,7.40
2022-10-05T03:35:34.295Z,7.40
2022-10-05T03:38:23.543Z,7.40
2022-10-05T03:41:27.027Z,7.30
2022-10-05T03:44:00.046Z,7.30
2022-10-05T03:47:04.276Z,7.30
2022-10-05T03:49:49.559Z,7.20
2022-10-05T03:52:27.912Z,7.20
2022-10-05T03:55:24.410Z,7.10
2022-10-05T03:57:57.227Z,7.10
2022-10-05T04:00:25.679Z,7.00
2022-10-05T04:03:22.062Z,6.90
2022-10-05T04:05:55.380Z,6.90
2022-10-05T04:08:49.706Z,7.00
2022-10-05T04:11:31.905Z,7.10
2022-10-05T04:14:10.418Z,7.10
2022-10-05T04:16:48.155Z,7.20
2022-10-05T04:19:39.623Z,7.20
2022-10-05T04:22:20.695Z,7.30
2022-10-05T04:25:16.168Z,7.30
2022-10-05T04:28:01.582Z,7.30
2022-10-05T04:30:30.838Z,7.30
2022-10-05T04:32:59.831Z,7.30
2022-10-05T04:36:01.193Z,7.30
2022-10-05T04:39:03.119Z,7.30
2022-10-05T04:42:03.773Z,7.30
2022-10-05T04:45:09.580Z,7.40
2022-10-05T04:48:05.129Z,7.40
2022-10-05T04:50:43.177Z,7.30
2022-10-05T04:53:57.131Z,7.30
2022-10-05T04:56:41.779Z,7.30
2022-10-05T04:59:58.444Z,7.40
2022-10-05T05:03:11.361Z,7.40
2022-10-05T05:06:16.769Z,7.40
2022-10-05T05:09:32.985Z,7.40
2022-10-05T05:12:03.860Z,7.50
2022-10-05T05:15:01.036Z,7.50
2022-10-05T05:18:07.449Z,7.50
2022-10-05T05:21:10.233Z,7.50
2022-10-05T05:23:51.674Z,7.50
2022-10-05T05:26:49.843Z,7.60
2022-10-05T05:29:34.399Z,7.60
2022-10-05T05:32:31.194Z,7.70
2022-10-05T05:35:12.052Z,7.80
2022-10-05T05:38:32.863Z,7.80
2022-10-05T05:41:34.135Z,7.90
2022-10-05T05:44:26.183Z,7.90
2022-10-05T05:47:04.485Z,8.00
2022-10-05T05:50:19.998Z,8.00
2022-10-05T05:53:32.611Z,8.10
2022-10-05T05:56:17.529Z,8.10
2022-10-05T05:58:53.464Z,8.10
2022-10-05T06:01:34.021Z,8.20
2022-10-05T06:04:58.000Z,8.30
2022-10-05T06:07:31.599Z,8.30
2022-10-05T06:10:44.187Z,8.30
2022-10-05T06:13:40.528Z,8.40
2022-10-05T06:16:28.721Z,8.40
2022-10-05T06:19:04.218Z,8.50
2022-10-05T06:21:44.690Z,8.50
2022-10-05T06:24:32.070Z,8.60
2022-10-05T06:27:45.955Z,8.70
2022-10-05T06:30:17.669Z,8.80
2022-10-05T06:33:14.219Z,8.80
2022-10-05T06:36:18.091Z,8.90
2022-10-05T06:39:03.430Z,9.00
2022-10-05T06:42:17.595Z,9.20
2022-10-05T06:45:53.271Z,9.40
2022-10-05T06:49:05.328Z,9.60
2022-10-05T06:52:31.329Z,9.80
2022-10-05T06:55:28.569Z,9.90
2022-10-05T06:58:05.417Z,9.90
2022-10-05T07:01:18.418Z,9.90
2022-10-05T07:04:36.987Z,10.00
2022-10-05T07:07:30.651Z,10.30
2022-10-05T07:10:26.035Z,10.50
2022-10-05T07:13:32.616Z,10.70
2022-10-05T07:16:25.428Z,10.80
2022-10-05T07:19:25.907Z,10.90
2022-10-05T07:22:20.213Z,11.10
2022-10-05T07:25:32.255Z,11.40
2022-10-05T07:28:31.727Z,11.80
2022-10-05T07:31:16.636Z,12.00
2022-10-05T07:33:56.686Z,12.10
2022-10-05T07:37:02.791Z,12.30
2022-10-05T07:40:01.357Z,12.30
2022-10-05T07:42:53.822Z,12.50
2022-10-05T07:45:53.674Z,12.70
2022-10-05T07:48:39.624Z,13.00
2022-10-05T07:51:29.533Z,13.10
2022-10-05T07:54:33.800Z,13.20
2022-10-05T07:58:07.239Z,13.50
2022-10-05T08:01:02.631Z,13.40
2022-10-05T08:03:57.969Z,13.50
2022-10-05T08:06:49.674Z,13.80
2022-10-05T08:09:35.685Z,14.00
2022-10-05T08:12:35.828Z,14.30
2022-10-05T08:15:30.955Z,14.40
2022-10-05T08:18:38.762Z,14.00
2022-10-05T08:21:11.890Z,14.30
2022-10-05T08:24:05.193Z,14.40
2022-10-05T08:26:55.584Z,14.20
2022-10-05T08:29:48.399Z,14.50
2022-10-05T08:32:45.672Z,14.40
2022-10-05T08:35:27.791Z,14.60
2022-10-05T08:37:55.228Z,14.70
2022-10-05T08:40:34.217Z,14.80
2022-10-05T08:43:16.319Z,15.10
2022-10-05T08:46:02.135Z,15.40
2022-10-05T08:49:02.672Z,15.60
2022-10-05T08:51:54.494Z,15.70
2022-10-05T08:55:03.431Z,15.90
2022-10-05T08:57:39.037Z,15.90
2022-10-05T09:00:28.343Z,15.70
2022-10-05T09:03:34.409Z,15.40
2022-10-05T09:06:30.616Z,15.40
2022-10-05T09:09:02.139Z,15.30
2022-10-05T09:11:39.525Z,15.60
2022-10-05T09:14:27.921Z,15.70
2022-10-05T09:17:30.172Z,16.10
2022-10-05T09:20:27.383Z,15.90
2022-10-05T09:23:14.596Z,16.00
2022-10-05T09:26:28.987Z,16.20
2022-10-05T09:29:52.286Z,16.50
2022-10-05T09:33:01.300Z,16.80
2022-10-05T09:36:25.610Z,17.20
2022-10-05T09:39:35.672Z,17.60
2022-10-05T09:42:36.731Z,17.40
2022-10-05T09:45:48.850Z,17.40
2022-10-05T09:48:33.694Z,17.50
2022-10-05T09:51:35.169Z,17.70
2022-10-05T09:54:39.637Z,18.10
2022-10-05T09:57:52.446Z,18.10
2022-10-05T10:00:48.230Z,18.30
2022-10-05T10:04:10.217Z,18.20
2022-10-05T10:07:21.969Z,18.20
2022-10-05T10:10:12.726Z,18.50
2022-10-05T10:13:23.809Z,18.90
2022-10-05T10:16:12.990Z,19.00
2022-10-05T10:18:51.979Z,19.00
2022-10-05T10:22:14.456Z,19.00
2022-10-05T10:25:19.249Z,19.30
2022-10-05T10:28:13.413Z,19.60
2022-10-05T10:31:12.076Z,19.50
2022-10-05T10:34:07.250Z,19.50
2022-10-05T10:36:52.980Z,19.40
2022-10-05T10:39:51.921Z,19.30
2022-10-05T10:42:33.195Z,19.50
2022-10-05T10:45:19.876Z,19.80
2022-10-05T10:47:50.753Z,20.30
2022-10-05T10:51:00.701Z,20.40
2022-10-05T10:53:51.620Z,20.30
2022-10-05T10:56:56.512Z,20.30
2022-10-05T10:59:40.174Z,20.20
2022-10-05T11:02:53.450Z,20.30
2022-10-05T11:05:28.257Z,20.20
2022-10-05T11:08:16.371Z,20.70
2022-10-05T11:11:15.487Z,21.20
2022-10-05T11:14:33.901Z,21.30
2022-10-05T11:17:16.007Z,21.00
2022-10-05T11:20:26.012Z,21.60
2022-10-05T11:24:20.189Z,22.60
2022-10-05T11:27:12.014Z,24.50
2022-10-05T11:29:54.181Z,26.40
2022-10-05T11:33:14.754Z,26.20
2022-10-05T11:36:17.139Z,28.20
2022-10-05T11:39:33.371Z,30.00
2022-10-05T11:42:33.820Z,29.50
2022-10-05T11:45:21.803Z,31.00
2022-10-05T11:48:07.363Z,31.50
2022-10-05T11:50:56.464Z,30.90
2022-10-05T11:53:43.300Z,29.40
2022-10-05T11:56:49.540Z,29.10
2022-10-05T11:59:45.616Z,28.00
2022-10-05T12:02:34.507Z,27.50
2022-10-05T12:05:37.035Z,27.10
2022-10-05T12:08:08.429Z,26.90
2022-10-05T12:10:44.930Z,28.30
2022-10-05T12:13:19.292Z,30.10
2022-10-05T12:16:12.899Z,29.80
2022-10-05T12:18:56.115Z,29.90
2022-10-05T12:21:32.034Z,29.50
2022-10-05T12:24:26.879Z,29.80
2022-10-05T12:27:01.071Z,29.40
2022-10-05T12:29:42.096Z,29.20
2022-10-05T12:32:29.649Z,28.60
2022-10-05T12:35:29.934Z,29.30
2022-10-05T12:38:25.593Z,30.00
2022-10-05T12:41:05.727Z,30.10
2022-10-05T12:43:51.202Z,30.10
2022-10-05T12:46:26.894Z,29.30
2022-10-05T12:48:57.344Z,28.40
2022-10-05T12:52:04.697Z,28.10
2022-10-05T12:54:46.662Z,28.90
2022-10-05T12:57:42.160Z,28.40
2022-10-05T13:00:13.721Z,28.60
2022-10-05T13:02:48.894Z,28.50
2022-10-05T13:05:56.942Z,28.50
2022-10-05T13:08:44.138Z,28.30
2022-10-05T13:11:28.591Z,28.20
2022-10-05T13:14:48.656Z,26.50
2022-10-05T13:17:36.906Z,25.90
2022-10-05T13:20:28.178Z,25.20
2022-10-05T13:23:39.734Z,24.60
2022-10-05T13:26:33.649Z,23.80
2022-10-05T13:29:22.198Z,23.00
2022-10-05T13:32:06.750Z,22.90
2022-10-05T13:34:49.473Z,22.90
2022-10-05T13:37:40.925Z,22.80
2022-10-05T13:40:28.985Z,22.80
2022-10-05T13:43:04.020Z,23.00
2022-10-05T13:45:56.850Z,23.20
2022-10-05T13:49:01.622Z,23.60
2022-10-05T13:51:41.730Z,23.70
2022-10-05T13:54:47.256Z,24.30
2022-10-05T13:57:56.479Z,25.50
2022-10-05T14:00:27.017Z,27.80
2022-10-05T14:02:57.670Z,28.40
2022-10-05T14:05:30.768Z,28.80
2022-10-05T14:08:15.498Z,30.20
2022-10-05T14:10:48.032Z,30.20
2022-10-05T14:13:47.105Z,31.70
2022-10-05T14:16:20.634Z,33.00
2022-10-05T14:19:04.806Z,31.90
2022-10-05T14:21:44.004Z,30.80
2022-10-05T14:24:44.524Z,30.30
2022-10-05T14:27:32.508Z,30.80
2022-10-05T14:30:08.899Z,31.40
2022-10-05T14:33:08.992Z,30.60
2022-10-05T14:35:55.351Z,29.60
2022-10-05T14:38:52.581Z,30.70
2022-10-05T14:41:27.521Z,32.00
2022-10-05T14:43:59.290Z,32.70
2022-10-05T14:46:30.201Z,31.50
2022-10-05T14:49:23.187Z,31.70
2022-10-05T14:51:51.828Z,30.90
2022-10-05T14:54:30.704Z,31.40
2022-10-05T14:57:08.106Z,32.00
2022-10-05T15:00:00.202Z,31.50
2022-10-05T15:03:07.633Z,32.50
2022-10-05T15:05:50.989Z,31.50
2022-10-05T15:09:17.559Z,30.00
2022-10-05T15:11:56.213Z,29.90
2022-10-05T15:14:31.811Z,28.60
2022-10-05T15:17:12.724Z,27.40
2022-10-05T15:20:06.224Z,26.80
2022-10-05T15:23:08.066Z,25.80
2022-10-05T15:25:43.187Z,25.20
2022-10-05T15:28:34.491Z,24.50
2022-10-05T15:31:24.295Z,23.80
2022-10-05T15:33:59.467Z,23.10
2022-10-05T15:37:10.034Z,22.70
2022-10-05T15:39:58.359Z,22.60
2022-10-05T15:42:38.622Z,22.10
2022-10-05T15:45:32.813Z,21.70
2022-10-05T15:48:22.352Z,21.40
2022-10-05T15:51:00.586Z,21.30
2022-10-05T15:53:52.927Z,21.20
2022-10-05T15:56:30.379Z,21.20
2022-10-05T15:59:14.228Z,20.90
2022-10-05T16:01:53.248Z,20.80
2022-10-05T16:04:45.068Z,20.60
2022-10-05T16:07:43.828Z,20.40
2022-10-05T16:10:39.484Z,20.30
2022-10-05T16:13:48.211Z,20.10
2022-10-05T16:16:37.451Z,19.80
2022-10-05T16:19:30.738Z,19.60
2022-10-05T16:22:11.291Z,19.40
2022-10-05T16:24:57.110Z,19.20
2022-10-05T16:28:06.090Z,19.10
2022-10-05T16:31:02.035Z,18.90
2022-10-05T16:34:03.421Z,18.70
2022-10-05T16:36:54.836Z,18.60
2022-10-05T16:39:52.130Z,18.40
2022-10-05T16:42:46.343Z,18.20
2022-10-05T16:45:14.493Z,17.90
2022-10-05T16:47:54.159Z,17.70
2022-10-05T16:50:47.411Z,17.60
2022-10-05T16:53:32.162Z,17.40
2022-10-05T16:56:06.826Z,17.30
2022-10-05T16:58:34.089Z,17.10
2022-10-05T17:01:21.750Z,17.00
2022-10-05T17:04:44.200Z,16.90
2022-10-05T17:07:53.047Z,16.60
2022-10-05T17:10:41.161Z,16.40
2022-10-05T17:13:11.522Z,16.30
2022-10-05T17:16:26.061Z,16.10
2022-10-05T17:19:15.277Z,16.00
2022-10-05T17:22:01.991Z,15.90
2022-10-05T17:24:47.702Z,15.70
2022-10-05T17:27:55.260Z,15.60
2022-10-05T17:30:48.792Z,15.50
2022-10-05T17:33:31.027Z,15.40
2022-10-05T17:36:12.374Z,15.30
2022-10-05T17:39:15.713Z,15.30
2022-10-05T17:41:43.731Z,15.20
2022-10-05T17:44:13.579Z,15.10
2022-10-05T17:46:48.013Z,15.00
2022-10-05T17:50:17.262Z,14.90
2022-10-05T17:53:03.940Z,14.80
2022-10-05T17:55:34.440Z,14.70
2022-10-05T17:58:44.568Z,14.70
2022-10-05T18:01:20.304Z,14.60
2022-10-05T18:03:52.132Z,14.60
2022-10-05T18:06:37.707Z,14.60
2022-10-05T18:09:23.076Z,14.60
2022-10-05T18:12:16.595Z,14.50
2022-10-05T18:14:59.994Z,14.40
2022-10-05T18:18:33.693Z,14.40
2022-10-05T18:21:16.540Z,14.30
2022-10-05T18:24:27.124Z,14.30
2022-10-05T18:27:07.598Z,14.30
2022-10-05T18:30:05.533Z,14.20
2022-10-05T18:32:59.099Z,14.20
2022-10-05T18:36:03.548Z,14.10
2022-10-05T18:38:48.535Z,14.10
2022-10-05T18:41:33.039Z,14.10
2022-10-05T18:44:12.308Z,14.00
2022-10-05T18:47:28.486Z,13.90
2022-10-05T18:50:40.100Z,13.90
2022-10-05T18:53:39.936Z,13.80
2022-10-05T18:56:36.426Z,13.70
2022-10-05T18:59:32.178Z,13.70
2022-10-05T19:02:08.392Z,13.60
2022-10-05T19:04:51.223Z,13.60
2022-10-05T19:07:30.757Z,13.50
2022-10-05T19:10:15.851Z,13.40
2022-10-05T19:13:34.611Z,13.30
2022-10-05T19:16:39.560Z,13.30
2022-10-05T19:19:33.167Z,13.30
2022-10-05T19:22:34.439Z,13.30
2022-10-05T19:25:17.787Z,13.20
2022-10-05T19:28:31.579Z,13.20
2022-10-05T19:31:48.345Z,13.10
2022-10-05T19:34:37.514Z,13.00
2022-10-05T19:37:43.900Z,13.00
2022-10-05T19:40:31.081Z,12.90
2022-10-05T19:43:45.632Z,12.90
2022-10-05T19:46:19.026Z,12.90
2022-10-05T19:48:54.558Z,12.80
2022-10-05T19:51:30.571Z,12.80
2022-10-05T19:54:12.717Z,12.80
2022-10-05T19:56:55.275Z,12.70
2022-10-05T19:59:31.740Z,12.70
2022-10-05T20:01:59.963Z,12.60
2022-10-05T20:04:40.845Z,12.60
2022-10-05T20:07:15.213Z,12.60
2022-10-05T20:10:14.871Z,12.60
2022-10-05T20:12:58.300Z,12.60
2022-10-05T20:15:53.874Z,12.60
2022-10-05T20:19:01.535Z,12.60
2022-10-05T20:21:56.845Z,12.60
2022-10-05T20:24:29.830Z,12.60
2022-10-05T20:27:02.672Z,12.60
2022-10-05T20:29:40.199Z,12.50
2022-10-05T20:32:12.250Z,12.60
2022-10-05T20:34:42.842Z,12.60
2022-10-05T20:37:12.942Z,12.60
2022-10-05T20:39:41.025Z,12.50
2022-10-05T20:42:09.223Z,12.50
2022-10-05T20:44:37.259Z,12.40
2022-10-05T20:47:09.000Z,12.40
2022-10-05T20:49:37.934Z,12.50
2022-10-05T20:52:06.557Z,12.40
2022-10-05T20:54:33.707Z,12.50
2022-10-05T20:57:01.633Z,12.40
2022-10-05T20:59:29.158Z,12.30
2022-10-05T21:01:56.291Z,12.30
2022-10-05T21:04:28.431Z,12.30
2022-10-05T21:07:01.125Z,12.30
2022-10-05T21:09:28.815Z,12.90
2022-10-05T21:11:56.156Z,13.90
2022-10-05T21:14:23.972Z,14.30
2022-10-05T21:16:52.474Z,14.70
2022-10-05T21:19:19.652Z,15.10
2022-10-05T21:21:47.158Z,15.40
2022-10-05T21:24:15.195Z,15.60
2022-10-05T21:26:44.197Z,15.60
2022-10-05T21:29:13.184Z,15.40
2022-10-05T21:31:41.129Z,15.40
2022-10-05T21:34:08.594Z,15.40
2022-10-05T21:36:35.912Z,15.30
2022-10-05T21:39:03.310Z,15.30
2022-10-05T21:41:30.381Z,15.20
2022-10-05T21:43:57.447Z,15.00
2022-10-05T21:46:29.147Z,15.00
2022-10-05T21:48:56.339Z,15.10
2022-10-05T21:51:25.534Z,15.30
2022-10-05T21:53:57.496Z,15.60
2022-10-05T21:56:31.577Z,15.80
2022-10-05T21:59:01.419Z,15.90
2022-10-05T22:01:29.140Z,16.30
2022-10-05T22:03:56.989Z,16.50
2022-10-05T22:06:24.065Z,16.80
2022-10-05T22:08:51.122Z,17.00
2022-10-05T22:11:18.391Z,17.20
2022-10-05T22:13:51.627Z,17.50
2022-10-05T22:16:22.122Z,17.70
2022-10-05T22:18:49.686Z,17.80
2022-10-05T22:21:17.476Z,17.90
2022-10-05T22:23:45.785Z,17.90
2022-10-05T22:26:17.125Z,18.10
2022-10-05T22:28:46.714Z,18.20
2022-10-05T22:31:14.518Z,18.10
2022-10-05T22:33:41.555Z,18.00
2022-10-05T22:36:09.659Z,17.80
2022-10-05T22:38:36.767Z,17.90
2022-10-05T22:41:04.211Z,17.80
2022-10-05T22:43:31.289Z,17.90
2022-10-05T22:45:58.397Z,17.80
2022-10-05T22:48:25.988Z,17.80
2022-10-05T22:50:53.544Z,17.80
2022-10-05T22:53:20.743Z,17.60
2022-10-05T22:55:47.750Z,17.70
2022-10-05T22:58:14.815Z,17.80
2022-10-05T23:00:57.407Z,17.80
2022-10-05T23:03:25.855Z,17.90
2022-10-05T23:06:03.651Z,18.00
2022-10-05T23:08:35.860Z,17.90
2022-10-05T23:11:26.041Z,17.90
2022-10-05T23:13:55.836Z,17.90
2022-10-05T23:16:26.697Z,17.80
2022-10-05T23:18:55.260Z,17.80
2022-10-05T23:21:25.386Z,17.80
2022-10-05T23:23:52.386Z,17.80
2022-10-05T23:26:24.822Z,18.00
2022-10-05T23:28:52.251Z,18.00
2022-10-05T23:31:26.203Z,17.90
2022-10-05T23:33:54.178Z,17.90
2022-10-05T23:36:27.992Z,17.80
2022-10-05T23:38:55.044Z,17.80
2022-10-05T23:41:22.387Z,17.70
2022-10-05T23:43:49.878Z,17.70
2022-10-05T23:46:17.958Z,17.80
2022-10-05T23:48:45.193Z,17.80
2022-10-05T23:51:13.532Z,17.80
2022-10-05T23:53:40.711Z,17.80
2022-10-05T23:56:07.977Z,17.70
2022-10-05T23:58:35.082Z,17.70
